Аэропорт: Мурманск. Мурманск

ICAO: ULMM

METAR:
2019/05/26 14:00
ULMM 261400Z 09004MPS 9999 BKN040 09/00 Q0999 R13/150065 NOSIG RMK QFE743
METAR:
2019/05/26 12:24
TAF TAF ULMM 261051Z 2612/2712 12003G08MPS 9999 BKN012 
      TEMPO 2612/2618 09005G10MPS 5000 -SHRA BKN012CB 
      TEMPO 2618/2712 14004G09MPS -SHRA BKN012CB